Thunder radar more information blitzortung!


Radar de pluja more information rain snow radar


Visita la nostra xarxa de llocs de meteo:

Template documentation
and downloads

And another site



Wind From: 11-12-2017 11:00 Until: 14:59 warning for: Wind Level: Yellow info button

Pagina Historial Weather Underground text

Diari Resum Setembre 9, 2017 Unitats:  Imperial    Mètric   Tant
« Previous Dia
SegĂźent Dia »
Diari Setmana Mensual Anual Personalitzada
  Maxima: Minima: Media:
Temperatura: 76.6 °F 54.5 °F 64.8 °F
Punt de rosada: 64.2 °F 46.8 °F 56.7 °F
Humitat: 88 % 57 % 76 %
Wind Speed: 9.7 mph 0 mph 2.7 mph
RĂ fegues de vent: 9.7 mph - -
Vent:- - SSE
Pression baro: 29.8 in 29.6 in -
Precipitacions: 0.21 in    
Historical Graphs
 
 
Dades de taula per Setembre 9, 2017
Temps Temperatura Punt de rosada Pression baro Vent Wind Speed RĂ fegues de vent Humitat Rainfall Rate (Hourly)
00:03 66.7 °F 53.2 °F 29.8 in SW 1.4 mph 1.4 mph 62 % 0 in
00:04 66.7 °F 53.2 °F 29.8 in SW 1.4 mph 1.4 mph 62 % 0 in
00:05 65.1 °F 56.1 °F 29.7 in Calm   3 mph 73 % 0 in
00:09 66.7 °F 53.2 °F 29.8 in Calm     62 % 0 in
00:15 65.3 °F 56.5 °F 29.7 in Calm   1 mph 73 % 0 in
00:25 65.3 °F 56.5 °F 29.7 in Calm   3 mph 73 % 0 in
00:35 65.3 °F 56.5 °F 29.7 in NNE 3 mph 3 mph 73 % 0 in
00:45 65.5 °F 56.7 °F 29.7 in North 1 mph 2 mph 73 % 0 in
00:55 65.5 °F 56.7 °F 29.7 in Calm   1 mph 73 % 0 in
01:05 65.5 °F 56.7 °F 29.7 in Calm   3 mph 73 % 0 in
01:15 65.5 °F 56.7 °F 29.7 in Calm   2 mph 73 % 0 in
01:25 65.5 °F 56.7 °F 29.7 in NNE 2 mph 3 mph 73 % 0 in
01:35 65.5 °F 57 °F 29.7 in North 1 mph 2 mph 74 % 0 in
01:45 65.5 °F 56.7 °F 29.7 in NNE 2 mph 4 mph 73 % 0 in
01:55 65.5 °F 56.7 °F 29.6 in NNE 1 mph 3 mph 73 % 0 in
02:05 65.3 °F 56.8 °F 29.6 in North 1 mph 2 mph 74 % 0 in
02:15 65.1 °F 56.7 °F 29.6 in NNE 2 mph 2 mph 74 % 0 in
02:25 64.9 °F 56.5 °F 29.6 in NNE 2 mph 4 mph 74 % 0 in
02:35 64.8 °F 56.3 °F 29.6 in NE 2 mph 3 mph 74 % 0 in
02:45 64.8 °F 56.7 °F 29.6 in NE 1 mph 3 mph 75 % 0 in
02:55 64.8 °F 56.3 °F 29.6 in ENE 1 mph 4 mph 74 % 0 in
03:05 64.9 °F 56.5 °F 29.6 in NNE 1 mph 2 mph 74 % 0 in
03:15 65.1 °F 57 °F 29.6 in NE 1 mph 3 mph 75 % 0 in
03:25 65.1 °F 57 °F 29.6 in NNE 3 mph 3 mph 75 % 0 in
03:35 65.1 °F 57 °F 29.6 in North 3 mph 4 mph 75 % 0 in
03:45 64.9 °F 56.5 °F 29.6 in North 5 mph 6 mph 74 % 0 in
03:55 64.9 °F 56.5 °F 29.6 in NNE 5 mph 5 mph 74 % 0 in
04:05 65.3 °F 56.8 °F 29.6 in NNE 3 mph 5 mph 74 % 0 in
04:15 65.3 °F 56.8 °F 29.6 in NNE 3 mph 4 mph 74 % 0 in
04:25 65.7 °F 57 °F 29.6 in North 2 mph 3 mph 74 % 0 in
04:35 65.8 °F 56.8 °F 29.6 in North 1 mph 4 mph 73 % 0 in
04:45 66 °F 57 °F 29.6 in NNE 3 mph 5 mph 73 % 0 in
04:55 66.4 °F 57 °F 29.6 in NNE 2 mph 2 mph 72 % 0 in
05:05 66.9 °F 57.6 °F 29.6 in North 1 mph 3 mph 72 % 0 in
05:15 67.6 °F 58.3 °F 29.6 in NNE 1 mph 3 mph 72 % 0 in
05:25 68.7 °F 58.8 °F 29.6 in NE 1 mph 3 mph 71 % 0 in
10:25 68.7 °F 58.8 °F 29.6 in NE 2.9 mph 2.9 mph 71 % 0 in
10:30 70 °F 59.4 °F 29.6 in ENE 1.2 mph 1.2 mph 69 % 0 in
10:35 70 °F 59.7 °F 29.6 in NNW 2.3 mph 2.3 mph 70 % 0 in
10:40 70.5 °F 60.3 °F 29.6 in NNW 2.9 mph 2.9 mph 70 % 0 in
10:45 71.2 °F 60.4 °F 29.6 in ENE 3.5 mph 3.5 mph 69 % 0 in
10:50 72 °F 60.4 °F 29.6 in North 2.3 mph 2.3 mph 67 % 0 in
10:55 72.9 °F 61.7 °F 29.6 in North 1.6 mph 1.6 mph 68 % 0 in
11:00 72.9 °F 61.3 °F 29.6 in ENE 5.8 mph 5.8 mph 67 % 0 in
11:05 72.7 °F 61.2 °F 29.6 in NNE 2.3 mph 2.3 mph 67 % 0 in
11:10 73.4 °F 61.9 °F 29.6 in East 4.6 mph 4.6 mph 67 % 0 in
11:15 73.4 °F 61.9 °F 29.6 in NE 4.6 mph 4.6 mph 67 % 0 in
11:20 74.1 °F 62.4 °F 29.6 in NE 5.4 mph 5.4 mph 67 % 0 in
11:25 73.8 °F 62.1 °F 29.6 in NNE 4.6 mph 4.6 mph 67 % 0 in
11:30 74.8 °F 63.1 °F 29.6 in NNE 3.5 mph 3.5 mph 67 % 0 in
11:35 74.8 °F 63.7 °F 29.6 in East 3.5 mph 3.5 mph 68 % 0 in
11:40 74.8 °F 63.7 °F 29.6 in East 3.6 mph 3.6 mph 68 % 0 in
11:45 74.8 °F 63.1 °F 29.6 in NNE 3.5 mph 3.5 mph 67 % 0 in
11:50 75 °F 63.3 °F 29.6 in NE 2.4 mph 2.4 mph 67 % 0 in
11:55 75.2 °F 63.1 °F 29.6 in NNE 3.3 mph 3.3 mph 66 % 0 in
12:00 75 °F 63.3 °F 29.6 in ENE 2.3 mph 2.4 mph 67 % 0 in
12:05 75 °F 63.3 °F 29.6 in East 3.6 mph 3.6 mph 67 % 0 in
12:10 75 °F 63.3 °F 29.6 in ENE 3.5 mph 3.5 mph 67 % 0 in
12:15 75.4 °F 63.1 °F 29.6 in NNE 2.3 mph   66 % 0 in
12:20 76.3 °F 64 °F 29.6 in Calm     66 % 0 in
12:25 76.5 °F 64.2 °F 29.6 in West 2.6 mph 2.6 mph 66 % 0 in
12:30 76.6 °F 64 °F 29.6 in NW 1.2 mph   65 % 0 in
12:35 76.6 °F 64 °F 29.6 in SW 3.5 mph 3.6 mph 65 % 0 in
12:40 76.1 °F 62.6 °F 29.6 in WSW 5.8 mph 5.8 mph 63 % 0 in
12:45 75.9 °F 62.1 °F 29.6 in South 3.5 mph 3.5 mph 62 % 0 in
12:50 75.7 °F 61.3 °F 29.6 in WSW 3.5 mph 3.5 mph 61 % 0 in
12:55 75.7 °F 61.3 °F 29.6 in WSW 8.1 mph 8.1 mph 61 % 0 in
13:00 75.4 °F 60.4 °F 29.6 in West 6.4 mph 6.4 mph 60 % 0 in
13:05 75 °F 60.6 °F 29.6 in SW 4.6 mph 4.6 mph 61 % 0 in
13:10 74.8 °F 60.4 °F 29.6 in SW 8.1 mph 8.1 mph 61 % 0 in
13:15 74.5 °F 60.1 °F 29.6 in West 4.6 mph 4.6 mph 61 % 0 in
13:20 74.5 °F 59.7 °F 29.6 in WNW 9.7 mph 9.7 mph 60 % 0 in
13:25 74.3 °F 59.5 °F 29.6 in WNW 6.9 mph 6.9 mph 60 % 0 in
13:30 74.3 °F 59.5 °F 29.6 in West 5.9 mph 5.9 mph 60 % 0 in
13:35 74.3 °F 59.5 °F 29.6 in West 5.8 mph 5.8 mph 60 % 0 in
13:40 74.1 °F 59.4 °F 29.6 in West 9.2 mph 9.2 mph 60 % 0 in
13:45 74.3 °F 59.5 °F 29.6 in NW 5.8 mph 5.8 mph 60 % 0 in
13:50 74.3 °F 59 °F 29.6 in SSW 3.5 mph 3.5 mph 59 % 0 in
13:55 74.3 °F 59 °F 29.6 in WSW 5.8 mph 5.8 mph 59 % 0 in
14:00 73.6 °F 57.9 °F 29.6 in West 8.1 mph 8.1 mph 58 % 0 in
14:05 72.9 °F 57.2 °F 29.6 in WSW 5.8 mph 5.8 mph 58 % 0 in
14:10 72.7 °F 57 °F 29.6 in WSW 5.4 mph 5.4 mph 58 % 0 in
14:15 72.1 °F 56.1 °F 29.6 in NW 5.8 mph 5.8 mph 57 % 0 in
14:20 72 °F 55.9 °F 29.6 in South 3.5 mph 3.5 mph 57 % 0 in
14:25 72.1 °F 56.1 °F 29.6 in WSW 6 mph 6 mph 57 % 0 in
14:30 72 °F 55.9 °F 29.6 in NNW 5.6 mph 5.6 mph 57 % 0 in
14:36 71.4 °F 55.9 °F 29.6 in WNW 4.6 mph 4.6 mph 58 % 0 in
14:41 70.9 °F 55.4 °F 29.6 in WNW 6.9 mph 6.9 mph 58 % 0 in
14:46 70.3 °F 55.2 °F 29.6 in WSW 5.8 mph 5.8 mph 59 % 0 in
14:51 69.3 °F 55.2 °F 29.6 in West 5.8 mph 5.8 mph 61 % 0 in
14:56 68.7 °F 55.2 °F 29.6 in NW 4.6 mph 4.6 mph 62 % 0 in
15:01 68 °F 55.4 °F 29.6 in NE 3.5 mph 3.5 mph 64 % 0 in
15:06 67.6 °F 55.6 °F 29.6 in SW 4.6 mph 4.6 mph 65 % 0 in
15:11 66.9 °F 55.6 °F 29.6 in SSW 2.4 mph 2.4 mph 67 % 0 in
15:16 66.6 °F 55.8 °F 29.6 in WNW 3.5 mph 3.5 mph 68 % 0 in
15:21 66 °F 55.9 °F 29.6 in South 2.6 mph   70 % 0 in
15:26 65.7 °F 56.5 °F 29.6 in WNW 1.2 mph 1.2 mph 72 % 0 in
15:31 65.3 °F 56.5 °F 29.6 in ENE 2.6 mph 2.6 mph 73 % 0 in
15:36 64.9 °F 56.8 °F 29.6 in SE 2.3 mph 2.3 mph 75 % 0 in
15:41 64.8 °F 56.7 °F 29.6 in ESE 1.4 mph   75 % 0.04 in
15:46 64.4 °F 56.3 °F 29.6 in East 2.3 mph 2.3 mph 75 % 0.04 in
15:51 64.6 °F 56.8 °F 29.6 in SW 2.3 mph 2.3 mph 76 % 0.04 in
15:56 64.6 °F 57.2 °F 29.6 in ESE 2.4 mph 2.4 mph 77 % 0.04 in
16:01 64.4 °F 57 °F 29.6 in NE 1.6 mph   77 % 0.04 in
16:06 64.2 °F 57.2 °F 29.6 in SW 1.2 mph 1.2 mph 78 % 0.09 in
16:11 64.2 °F 57.2 °F 29.6 in SW 1.2 mph 1.2 mph 78 % 0.09 in
16:16 64 °F 57 °F 29.6 in SW 1.2 mph   78 % 0.09 in
16:21 63.9 °F 56.8 °F 29.6 in WSW 2.3 mph 2.3 mph 78 % 0.09 in
16:26 63.5 °F 56.5 °F 29.6 in WSW 2.3 mph 2.3 mph 78 % 0.09 in
16:31 63.9 °F 57.2 °F 29.6 in SW 2.3 mph 2.3 mph 79 % 0.09 in
16:36 63.7 °F 57 °F 29.6 in WSW 2.3 mph 2.3 mph 79 % 0.08 in
16:41 63.5 °F 56.8 °F 29.6 in WSW 2.3 mph 2.3 mph 79 % 0.08 in
16:46 63.3 °F 56.7 °F 29.6 in WNW 2.3 mph 2.3 mph 79 % 0.08 in
16:51 62.8 °F 56.1 °F 29.6 in NNW 2.9 mph 2.9 mph 79 % 0.13 in
16:56 62.6 °F 55.9 °F 29.6 in WSW 3.5 mph 3.5 mph 79 % 0.13 in
17:01 62.2 °F 55.6 °F 29.6 in WNW 4.6 mph 4.6 mph 79 % 0.13 in
17:06 62.1 °F 55.8 °F 29.6 in SW 3.5 mph 3.5 mph 80 % 0.08 in
17:11 61.9 °F 55.6 °F 29.6 in West 2.4 mph 2.4 mph 80 % 0.12 in
17:16 61.9 °F 55.9 °F 29.6 in WNW 1.2 mph   81 % 0.12 in
17:21 62.1 °F 56.1 °F 29.6 in SW 2 mph 2 mph 81 % 0.12 in
17:26 62.1 °F 56.8 °F 29.6 in Calm     83 % 0.12 in
17:31 62.4 °F 57.6 °F 29.6 in SW 1.2 mph   84 % 0.12 in
17:36 62.1 °F 56.8 °F 29.6 in West 3.5 mph 3.5 mph 83 % 0.09 in
17:41 61.9 °F 56.3 °F 29.6 in WSW 2.3 mph 2.3 mph 82 % 0.09 in
17:42 62.1 °F 56.5 °F 29.6 in West 2.3 mph 2.3 mph 82 % 0.09 in
17:47 62.2 °F 56.7 °F 29.6 in Calm     82 % 0.09 in
17:52 62.4 °F 57.2 °F 29.6 in West 1.2 mph   83 % 0.04 in
17:57 62.8 °F 57.6 °F 29.6 in NNE 1.2 mph 1.2 mph 83 % 0.04 in
18:02 63.1 °F 58.3 °F 29.6 in Calm     84 % 0.04 in
18:07 63 °F 57.7 °F 29.6 in Calm     83 % 0.04 in
18:12 63.3 °F 58.1 °F 29.6 in Calm     83 % 0 in
18:17 63.5 °F 58.3 °F 29.6 in SW 2 mph 2 mph 83 % 0 in
18:22 63.5 °F 58.3 °F 29.6 in SW 1.4 mph 1.4 mph 83 % 0 in
18:27 63.7 °F 58.5 °F 29.6 in Calm     83 % 0 in
18:32 63.5 °F 58.3 °F 29.6 in Calm     83 % 0 in
18:37 63.3 °F 57.7 °F 29.6 in Calm     82 % 0 in
18:42 63.3 °F 58.1 °F 29.6 in Calm     83 % 0 in
18:47 63.3 °F 57.7 °F 29.6 in SW 1.4 mph   82 % 0 in
18:48 63.3 °F 57.7 °F 29.6 in SW 1.4 mph   82 % 0 in
18:53 63.3 °F 57.7 °F 29.6 in SW 1.2 mph 1.4 mph 82 % 0 in
18:58 63.3 °F 58.1 °F 29.6 in SW 1.2 mph   83 % 0 in
19:03 63.3 °F 58.1 °F 29.6 in SW 2.3 mph 2.3 mph 83 % 0 in
19:08 63.1 °F 58.3 °F 29.6 in SW 1.4 mph   84 % 0 in
19:13 63.1 °F 58.3 °F 29.6 in Calm     84 % 0 in
19:18 63.1 °F 57.9 °F 29.6 in SW 2.3 mph 2.3 mph 83 % 0 in
19:23 62.8 °F 57.6 °F 29.6 in SW 1.2 mph   83 % 0 in
19:25 58.3 °F 52.9 °F 29.6 in ENE 1 mph   82 % 0 in
19:28 62.8 °F 57.6 °F 29.6 in SW 1.2 mph 1.2 mph 83 % 0 in
19:33 62.6 °F 57.4 °F 29.6 in SW 1.2 mph   83 % 0 in
19:35 58.3 °F 52.9 °F 29.6 in NE 1 mph 2 mph 82 % 0 in
19:38 62.4 °F 57.6 °F 29.6 in Calm     84 % 0 in
19:43 62.2 °F 57.4 °F 29.6 in Calm     84 % 0 in
19:45 58.1 °F 52.5 °F 29.6 in Calm     82 % 0 in
19:48 62.2 °F 57.4 °F 29.6 in Calm     84 % 0 in
19:53 62.2 °F 57.4 °F 29.6 in ENE 2.3 mph 2.3 mph 84 % 0 in
19:55 57.7 °F 52.5 °F 29.6 in NNE 1 mph 2 mph 83 % 0 in
19:58 62.1 °F 57.6 °F 29.6 in ENE 3.5 mph 3.5 mph 85 % 0 in
20:03 61.9 °F 57 °F 29.6 in ENE 3.5 mph 3.5 mph 84 % 0 in
20:05 57.6 °F 52.3 °F 29.6 in Calm     83 % 0 in
20:08 61.9 °F 57 °F 29.6 in ENE 1.2 mph 1.2 mph 84 % 0 in
20:13 61.9 °F 57 °F 29.6 in NE 4.3 mph 4.3 mph 84 % 0 in
20:15 57.4 °F 52.3 °F 29.6 in Calm   1 mph 83 % 0 in
20:18 61.9 °F 57.4 °F 29.6 in East 4.6 mph 4.6 mph 85 % 0 in
20:23 61.9 °F 57.4 °F 29.6 in NE 3.6 mph 3.6 mph 85 % 0 in
20:25 57.4 °F 52.3 °F 29.7 in WNW 1 mph 2 mph 83 % 0 in
20:28 61.9 °F 57.4 °F 29.6 in NNE 3.5 mph 3.5 mph 85 % 0 in
20:33 61.7 °F 57 °F 29.6 in NNE 4.6 mph 4.6 mph 85 % 0 in
20:35 57.2 °F 52.2 °F 29.7 in Calm     83 % 0 in
20:38 61.7 °F 57 °F 29.6 in ENE 4.6 mph 4.6 mph 85 % 0 in
20:43 61.5 °F 57 °F 29.6 in NE 3.8 mph 3.8 mph 85 % 0 in
20:45 57.2 °F 52.2 °F 29.7 in West 2 mph 2 mph 83 % 0 in
20:48 61.5 °F 57.4 °F 29.6 in ESE 2.3 mph 2.4 mph 86 % 0 in
20:53 61.5 °F 57.4 °F 29.6 in ENE 4.6 mph 4.6 mph 86 % 0 in
20:55 56.8 °F 52.2 °F 29.7 in Calm   2 mph 84 % 0 in
20:58 61.5 °F 57.4 °F 29.6 in North 2.4 mph 2.4 mph 86 % 0 in
21:03 61.7 °F 57.6 °F 29.6 in North 5.8 mph 5.8 mph 86 % 0 in
21:05 56.7 °F 52 °F 29.7 in Calm   2 mph 84 % 0 in
21:08 61.7 °F 57.7 °F 29.6 in ENE 5.8 mph 5.8 mph 87 % 0 in
21:13 61.5 °F 57.6 °F 29.6 in East 4.9 mph 4.9 mph 87 % 0 in
21:15 56.5 °F 51.6 °F 29.7 in SW 1 mph 1 mph 84 % 0 in
21:18 61.5 °F 57.6 °F 29.6 in ESE 7.8 mph 7.8 mph 87 % 0 in
21:23 61.3 °F 57.4 °F 29.6 in East 4.6 mph 4.6 mph 87 % 0 in
21:25 56.1 °F 51.6 °F 29.7 in Calm   1 mph 85 % 0 in
21:28 61.3 °F 57.7 °F 29.6 in ENE 4.6 mph 4.6 mph 88 % 0 in
21:33 61.3 °F 57.7 °F 29.6 in East 2.3 mph 2.3 mph 88 % 0 in
21:35 55.8 °F 51.1 °F 29.7 in SW 1 mph 3 mph 84 % 0 in
21:38 61.2 °F 57.6 °F 29.6 in ESE 4.7 mph 4.7 mph 88 % 0 in
21:43 61 °F 57 °F 29.6 in ENE 6.9 mph 6.9 mph 87 % 0 in
21:45 55.6 °F 50.7 °F 29.7 in Calm   2 mph 84 % 0 in
21:48 60.8 °F 56.7 °F 29.6 in NE 4.6 mph 4.6 mph 86 % 0 in
21:53 60.8 °F 56.7 °F 29.6 in ENE 4.6 mph 4.6 mph 86 % 0 in
21:54 60.8 °F 56.7 °F 29.6 in ENE 4.6 mph 4.6 mph 86 % 0 in
21:55 56.1 °F 50.7 °F 29.7 in WSW 2 mph 4 mph 82 % 0 in
21:59 60.6 °F 56.5 °F 29.6 in NNE 4.6 mph 4.6 mph 86 % 0 in
22:04 60.6 °F 56.5 °F 29.6 in ENE 3.5 mph 3.5 mph 86 % 0 in
22:05 56.5 °F 50.4 °F 29.7 in West 1 mph 3 mph 80 % 0 in
22:09 60.4 °F 55.9 °F 29.7 in East 2.9 mph 2.9 mph 85 % 0 in
22:14 60.6 °F 56.1 °F 29.7 in East 3.5 mph 3.5 mph 85 % 0 in
22:15 56.5 °F 50 °F 29.7 in West 1 mph 3 mph 79 % 0 in
22:19 60.4 °F 55.6 °F 29.7 in NE 3.5 mph 3.5 mph 84 % 0 in
22:24 60.4 °F 55.6 °F 29.7 in ENE 2.3 mph 2.3 mph 84 % 0 in
22:25 56.5 °F 49.5 °F 29.7 in Calm   1 mph 77 % 0 in
22:29 60.4 °F 55.6 °F 29.7 in ENE 3.5 mph 3.5 mph 84 % 0 in
22:34 60.4 °F 55.6 °F 29.7 in ENE 3.3 mph 3.3 mph 84 % 0 in
22:35 56.8 °F 49.5 °F 29.7 in West 2 mph 2 mph 76 % 0 in
22:39 60.3 °F 55.4 °F 29.7 in NNE 3.1 mph 3.1 mph 84 % 0 in
22:44 60.3 °F 55.4 °F 29.7 in NE 4.6 mph 4.6 mph 84 % 0 in
22:45 56.5 °F 48.9 °F 29.7 in Calm   2 mph 76 % 0 in
22:49 59.9 °F 54.7 °F 29.7 in ENE 3.5 mph 3.5 mph 83 % 0 in
22:54 59.9 °F 54.3 °F 29.7 in NNE 4.6 mph 4.6 mph 82 % 0 in
22:55 55.9 °F 48 °F 29.7 in Calm     75 % 0 in
22:59 59.9 °F 54.3 °F 29.7 in Calm     82 % 0 in
23:04 59.9 °F 54.3 °F 29.7 in ENE 2.3 mph 2.3 mph 82 % 0 in
23:05 55.8 °F 48 °F 29.7 in WSW 1 mph 3 mph 75 % 0 in
23:09 59.7 °F 54.1 °F 29.7 in ESE 4.6 mph 4.6 mph 82 % 0 in
23:14 59.7 °F 54.1 °F 29.7 in ESE 4.6 mph 4.6 mph 82 % 0 in
23:15 55.6 °F 48 °F 29.7 in WSW 1 mph 2 mph 76 % 0 in
23:19 59.7 °F 54.1 °F 29.7 in SSE 1.2 mph   82 % 0 in
23:24 59.5 °F 54 °F 29.7 in East 2.9 mph 2.9 mph 82 % 0 in
23:25 54.9 °F 47.5 °F 29.7 in Calm   2 mph 76 % 0 in
23:29 59.4 °F 54 °F 29.7 in ESE 3.5 mph 3.5 mph 82 % 0 in
23:34 59.2 °F 53.8 °F 29.7 in NNW 3.5 mph 3.5 mph 82 % 0 in
23:35 54.9 °F 47.1 °F 29.7 in WSW 2 mph 3 mph 75 % 0 in
23:39 59.2 °F 53.8 °F 29.7 in WNW 2.2 mph   82 % 0 in
23:44 59 °F 53.8 °F 29.7 in ENE 2.3 mph 2.3 mph 83 % 0 in
23:45 54.9 °F 47.1 °F 29.7 in WSW 1 mph 2 mph 75 % 0 in
23:49 58.8 °F 53.2 °F 29.7 in NE 4.6 mph 4.6 mph 82 % 0 in
23:54 58.6 °F 53.2 °F 29.7 in NNW 1.2 mph   82 % 0 in
23:55 54.5 °F 46.8 °F 29.7 in WSW 1 mph 2 mph 75 % 0 in
23:59 58.5 °F 53.2 °F 29.7 in NE 2.3 mph 2.3 mph 83 % 0 in
Meteo Sesrovires
Elogis d' Weather Underground - 3.75 mb

Guio original per  Jim McMurry - jmcmurry@mwt.net Adaptat per a la plantilla per  Wim van der Kuil - Leuven-Template.eu

Trobareu la nostra informacio del temps tambe a:

Weather Underground

AWEKAS